Lost Cabin, Wyoming
Current Conditions -  °F | °C
As of 9:35 AM on Monday 24 Nov 2014 (Local Time) from KTBX Reporting Station
Overcast Overcast  
Wind Chill:   Ceiling: 3300
Heat Index: 21°   Visibility: 10mi
Dew Point: 19°   Wind: 40mph
Humidity: 93%   Direction: 310°NW
Pressure: 30.03"   Gusts: 47mph
Location:  43.3284°N, 107.663°W
Report Text: KTBX 241635Z AUTO 31035G41KT 10SM SCT016 SCT027 OVC033 M06/M07 A3003 RMK AO2
Loading
Personal Weather Stations






























Interactive Weather Map New forecast layout! Learn more

10-Day Weather Forecast

Advertisements
Track Severe Weather on mobile